createdAt,value
2023-01-17T00:02:08.950Z,4.90
2023-01-17T00:04:55.444Z,4.80
2023-01-17T00:07:42.845Z,4.90
2023-01-17T00:10:16.343Z,4.90
2023-01-17T00:12:48.789Z,4.90
2023-01-17T00:15:19.951Z,4.90
2023-01-17T00:17:48.236Z,4.90
2023-01-17T00:20:39.770Z,4.90
2023-01-17T00:23:27.342Z,4.90
2023-01-17T00:26:03.803Z,4.90
2023-01-17T00:28:41.450Z,4.90
2023-01-17T00:31:10.622Z,4.90
2023-01-17T00:33:37.932Z,4.90
2023-01-17T00:36:06.276Z,4.90
2023-01-17T00:38:36.025Z,4.90
2023-01-17T00:41:07.762Z,5.00
2023-01-17T00:43:53.774Z,5.00
2023-01-17T00:46:39.733Z,5.00
2023-01-17T00:49:26.269Z,5.00
2023-01-17T00:52:12.305Z,5.00
2023-01-17T00:54:58.348Z,5.00
2023-01-17T00:57:43.978Z,5.00
2023-01-17T01:00:30.718Z,5.00
2023-01-17T01:03:17.265Z,5.00
2023-01-17T01:06:03.644Z,5.00
2023-01-17T01:08:49.749Z,5.00
2023-01-17T01:11:39.132Z,5.00
2023-01-17T01:14:28.817Z,5.00
2023-01-17T01:17:15.878Z,5.00
2023-01-17T01:20:01.610Z,5.00
2023-01-17T01:22:49.817Z,4.90
2023-01-17T01:25:35.420Z,4.90
2023-01-17T01:28:23.586Z,4.90
2023-01-17T01:31:09.456Z,4.90
2023-01-17T01:33:37.145Z,4.90
2023-01-17T01:36:07.698Z,4.90
2023-01-17T01:38:34.817Z,4.90
2023-01-17T01:41:02.425Z,4.80
2023-01-17T01:43:53.803Z,4.80
2023-01-17T01:46:42.071Z,4.80
2023-01-17T01:49:24.885Z,4.80
2023-01-17T01:51:59.730Z,4.80
2023-01-17T01:54:36.610Z,4.80
2023-01-17T01:57:06.751Z,4.80
2023-01-17T01:59:35.185Z,4.80
2023-01-17T02:02:02.471Z,4.80
2023-01-17T02:04:29.815Z,4.80
2023-01-17T02:07:14.900Z,4.80
2023-01-17T02:09:42.633Z,4.70
2023-01-17T02:12:10.621Z,4.70
2023-01-17T02:14:37.782Z,4.80
2023-01-17T02:17:40.326Z,4.80
2023-01-17T02:20:43.154Z,4.80
2023-01-17T02:23:33.227Z,4.80
2023-01-17T02:26:06.350Z,4.70
2023-01-17T02:28:39.676Z,4.70
2023-01-17T02:31:20.614Z,4.80
2023-01-17T02:34:16.652Z,4.80
2023-01-17T02:36:49.809Z,4.80
2023-01-17T02:39:24.621Z,4.80
2023-01-17T02:42:01.075Z,4.80
2023-01-17T02:44:28.194Z,4.90
2023-01-17T02:46:58.020Z,4.90
2023-01-17T02:49:28.616Z,4.90
2023-01-17T02:52:13.697Z,4.90
2023-01-17T02:55:16.151Z,4.90
2023-01-17T02:58:06.697Z,5.00
2023-01-17T03:00:52.760Z,5.00
2023-01-17T03:03:23.960Z,5.00
2023-01-17T03:06:11.747Z,5.00
2023-01-17T03:08:44.838Z,5.00
2023-01-17T03:11:13.611Z,5.00
2023-01-17T03:13:41.511Z,5.00
2023-01-17T03:16:17.006Z,4.90
2023-01-17T03:18:44.296Z,4.90
2023-01-17T03:21:11.574Z,4.90
2023-01-17T03:23:38.727Z,5.00
2023-01-17T03:26:07.116Z,5.00
2023-01-17T03:28:34.454Z,5.00
2023-01-17T03:31:01.766Z,5.00
2023-01-17T03:33:29.038Z,5.00
2023-01-17T03:35:58.263Z,5.10
2023-01-17T03:38:29.369Z,5.10
2023-01-17T03:40:56.543Z,5.20
2023-01-17T03:43:23.837Z,5.10
2023-01-17T03:45:54.448Z,5.20
2023-01-17T03:48:21.897Z,5.20
2023-01-17T03:50:51.820Z,5.10
2023-01-17T03:53:19.197Z,5.10
2023-01-17T03:55:47.216Z,5.10
2023-01-17T03:58:14.707Z,5.10
2023-01-17T04:00:42.212Z,5.10
2023-01-17T04:03:09.745Z,5.10
2023-01-17T04:05:36.913Z,5.10
2023-01-17T04:08:04.535Z,5.10
2023-01-17T04:10:31.668Z,5.10
2023-01-17T04:12:58.942Z,5.10
2023-01-17T04:15:26.130Z,5.20
2023-01-17T04:17:53.465Z,5.20
2023-01-17T04:20:47.010Z,5.10
2023-01-17T04:23:14.196Z,5.20
2023-01-17T04:25:41.407Z,5.10
2023-01-17T04:28:08.762Z,5.10
2023-01-17T04:30:36.367Z,5.10
2023-01-17T04:33:04.711Z,5.10
2023-01-17T04:35:33.513Z,5.10
2023-01-17T04:38:00.991Z,5.10
2023-01-17T04:40:29.686Z,5.00
2023-01-17T04:42:58.005Z,5.10
2023-01-17T04:45:25.634Z,5.00
2023-01-17T04:47:52.779Z,5.00
2023-01-17T04:50:20.220Z,5.00
2023-01-17T04:52:47.435Z,5.00
2023-01-17T04:55:15.578Z,4.90
2023-01-17T04:57:42.767Z,4.90
2023-01-17T05:00:12.041Z,4.90
2023-01-17T05:02:39.210Z,4.90
2023-01-17T05:05:07.306Z,4.90
2023-01-17T05:07:35.844Z,4.80
2023-01-17T05:10:04.628Z,4.80
2023-01-17T05:12:31.905Z,4.80
2023-01-17T05:14:59.331Z,4.70
2023-01-17T05:17:26.695Z,4.70
2023-01-17T05:19:53.971Z,4.70
2023-01-17T05:22:21.166Z,4.60
2023-01-17T05:24:48.472Z,4.70
2023-01-17T05:27:15.985Z,4.70
2023-01-17T05:29:43.373Z,4.70
2023-01-17T05:32:10.572Z,4.70
2023-01-17T05:34:38.830Z,4.70
2023-01-17T05:37:06.065Z,4.80
2023-01-17T05:39:34.640Z,4.80
2023-01-17T05:42:04.344Z,4.80
2023-01-17T05:44:31.627Z,4.80
2023-01-17T05:46:58.758Z,4.90
2023-01-17T05:49:25.953Z,4.90
2023-01-17T05:51:54.959Z,4.90
2023-01-17T05:54:22.265Z,4.90
2023-01-17T05:56:50.017Z,5.00
2023-01-17T05:59:28.546Z,5.00
2023-01-17T06:02:03.237Z,5.00
2023-01-17T06:04:30.414Z,5.00
2023-01-17T06:06:57.525Z,5.10
2023-01-17T06:09:24.711Z,5.00
2023-01-17T06:11:52.001Z,5.00
2023-01-17T06:14:19.107Z,5.00
2023-01-17T06:16:47.830Z,4.90
2023-01-17T06:19:15.175Z,4.90
2023-01-17T06:21:42.347Z,4.90
2023-01-17T06:24:09.484Z,4.80
2023-01-17T06:26:36.627Z,4.80
2023-01-17T06:29:04.124Z,4.80
2023-01-17T06:31:31.360Z,4.80
2023-01-17T06:34:03.216Z,4.70
2023-01-17T06:36:32.508Z,4.70
2023-01-17T06:38:59.595Z,4.70
2023-01-17T06:41:26.765Z,4.70
2023-01-17T06:43:54.820Z,4.70
2023-01-17T06:46:23.315Z,4.80
2023-01-17T06:48:50.548Z,4.70
2023-01-17T06:51:17.822Z,4.80
2023-01-17T06:53:45.074Z,4.80
2023-01-17T06:56:12.184Z,4.80
2023-01-17T06:58:42.479Z,4.80
2023-01-17T07:01:12.901Z,4.90
2023-01-17T07:03:40.435Z,4.90
2023-01-17T07:06:09.615Z,4.90
2023-01-17T07:08:40.064Z,5.00
2023-01-17T07:11:08.236Z,5.00
2023-01-17T07:13:38.293Z,5.00
2023-01-17T07:16:06.700Z,5.00
2023-01-17T07:18:35.042Z,5.00
2023-01-17T07:21:02.175Z,5.00
2023-01-17T07:23:29.500Z,5.00
2023-01-17T07:25:59.795Z,5.10
2023-01-17T07:28:28.181Z,5.00
2023-01-17T07:30:55.429Z,5.00
2023-01-17T07:33:22.623Z,5.00
2023-01-17T07:35:49.871Z,5.00
2023-01-17T07:38:19.532Z,5.10
2023-01-17T07:40:46.843Z,5.10
2023-01-17T07:43:14.332Z,5.20
2023-01-17T07:45:46.394Z,5.30
2023-01-17T07:48:13.572Z,5.40
2023-01-17T07:50:40.725Z,5.40
2023-01-17T07:53:08.113Z,5.50
2023-01-17T07:55:35.458Z,5.60
2023-01-17T07:58:03.653Z,5.60
2023-01-17T08:00:30.855Z,5.70
2023-01-17T08:02:59.047Z,5.70
2023-01-17T08:05:26.423Z,5.90
2023-01-17T08:07:53.982Z,5.90
2023-01-17T08:10:21.309Z,5.90
2023-01-17T08:12:50.230Z,6.00
2023-01-17T08:15:18.519Z,6.00
2023-01-17T08:17:53.165Z,6.00
2023-01-17T08:20:21.350Z,6.00
2023-01-17T08:22:48.663Z,6.10
2023-01-17T08:25:15.957Z,6.20
2023-01-17T08:27:43.144Z,6.10
2023-01-17T08:30:11.022Z,6.20
2023-01-17T08:32:40.934Z,6.10
2023-01-17T08:35:09.056Z,6.10
2023-01-17T08:37:38.004Z,6.10
2023-01-17T08:40:06.437Z,6.20
2023-01-17T08:42:41.029Z,6.10
2023-01-17T08:45:09.491Z,6.20
2023-01-17T08:47:37.378Z,6.20
2023-01-17T08:50:06.939Z,6.20
2023-01-17T08:52:34.493Z,6.20
2023-01-17T08:55:01.874Z,6.30
2023-01-17T08:57:29.067Z,6.40
2023-01-17T08:59:56.263Z,6.40
2023-01-17T09:02:24.854Z,6.60
2023-01-17T09:04:52.100Z,6.70
2023-01-17T09:07:20.673Z,6.90
2023-01-17T09:09:49.315Z,7.10
2023-01-17T09:12:16.441Z,7.40
2023-01-17T09:14:43.780Z,7.60
2023-01-17T09:17:11.656Z,7.80
2023-01-17T09:19:47.460Z,7.90
2023-01-17T09:22:15.454Z,7.90
2023-01-17T09:24:42.811Z,7.90
2023-01-17T09:27:10.150Z,7.90
2023-01-17T09:29:37.438Z,8.00
2023-01-17T09:32:05.102Z,8.10
2023-01-17T09:34:44.648Z,8.10
2023-01-17T09:37:11.853Z,8.10
2023-01-17T09:39:39.129Z,8.10
2023-01-17T09:42:21.967Z,8.10
2023-01-17T09:44:54.237Z,8.10
2023-01-17T09:47:39.986Z,8.10
2023-01-17T09:50:44.042Z,8.20
2023-01-17T09:53:18.690Z,8.20
2023-01-17T09:56:04.046Z,8.30
2023-01-17T09:58:40.228Z,8.40
2023-01-17T10:01:34.956Z,8.60
2023-01-17T10:04:14.445Z,8.80
2023-01-17T10:07:06.049Z,9.00
2023-01-17T10:10:10.605Z,9.30
2023-01-17T10:13:15.886Z,9.70
2023-01-17T10:16:02.905Z,10.00
2023-01-17T10:19:03.926Z,10.00
2023-01-17T10:22:02.406Z,10.00
2023-01-17T10:24:44.525Z,9.90
2023-01-17T10:27:34.622Z,9.80
2023-01-17T10:30:05.015Z,9.80
2023-01-17T10:32:34.627Z,9.80
2023-01-17T10:35:15.834Z,9.70
2023-01-17T10:37:45.496Z,9.60
2023-01-17T10:40:19.721Z,9.50
2023-01-17T10:42:58.101Z,9.50
2023-01-17T10:45:29.092Z,9.40
2023-01-17T10:48:09.354Z,9.20
2023-01-17T10:50:50.484Z,9.10
2023-01-17T10:53:42.931Z,8.90
2023-01-17T10:56:14.968Z,8.90
2023-01-17T10:58:42.298Z,8.70
2023-01-17T11:01:20.968Z,8.70
2023-01-17T11:03:51.538Z,8.60
2023-01-17T11:06:23.992Z,8.70
2023-01-17T11:09:16.368Z,8.80
2023-01-17T11:11:53.076Z,8.90
2023-01-17T11:14:26.474Z,9.10
2023-01-17T11:17:02.543Z,9.30
2023-01-17T11:19:32.555Z,9.50
2023-01-17T11:22:07.536Z,9.60
2023-01-17T11:24:47.334Z,9.60
2023-01-17T11:27:24.832Z,9.60
2023-01-17T11:30:22.202Z,9.70
2023-01-17T11:32:59.070Z,9.70
2023-01-17T11:35:29.548Z,9.70
2023-01-17T11:38:04.631Z,9.70
2023-01-17T11:40:38.034Z,9.60
2023-01-17T11:43:18.658Z,9.60
2023-01-17T11:45:59.698Z,9.50
2023-01-17T11:48:26.872Z,9.50
2023-01-17T11:50:57.866Z,9.60
2023-01-17T11:53:28.092Z,9.70
2023-01-17T11:56:08.363Z,9.90
2023-01-17T11:58:42.835Z,10.00
2023-01-17T12:01:37.290Z,10.00
2023-01-17T12:04:26.768Z,10.10
2023-01-17T12:07:15.524Z,10.20
2023-01-17T12:10:09.890Z,10.30
2023-01-17T12:12:58.684Z,10.40
2023-01-17T12:15:55.353Z,10.40
2023-01-17T12:18:22.697Z,10.50
2023-01-17T12:21:15.357Z,10.60
2023-01-17T12:24:26.203Z,10.60
2023-01-17T12:26:57.616Z,10.60
2023-01-17T12:29:33.922Z,10.60
2023-01-17T12:32:40.698Z,10.70
2023-01-17T12:35:31.757Z,10.70
2023-01-17T12:38:08.812Z,10.60
2023-01-17T12:40:45.153Z,10.50
2023-01-17T12:43:23.789Z,10.50
2023-01-17T12:45:52.316Z,10.40
2023-01-17T12:48:21.605Z,10.30
2023-01-17T12:50:58.489Z,10.20
2023-01-17T12:53:40.369Z,10.10
2023-01-17T12:56:13.244Z,10.10
2023-01-17T12:58:46.629Z,10.00
2023-01-17T13:01:39.926Z,9.90
2023-01-17T13:04:25.563Z,9.90
2023-01-17T13:06:58.871Z,9.80
2023-01-17T13:09:31.954Z,9.70
2023-01-17T13:12:06.344Z,9.70
2023-01-17T13:14:33.634Z,9.60
2023-01-17T13:17:09.161Z,9.60
2023-01-17T13:19:49.859Z,9.50
2023-01-17T13:22:21.808Z,9.40
2023-01-17T13:25:20.357Z,9.40
2023-01-17T13:28:03.347Z,9.40
2023-01-17T13:30:43.441Z,9.40
2023-01-17T13:33:35.211Z,9.30
2023-01-17T13:36:05.484Z,9.30
2023-01-17T13:38:55.107Z,9.20
2023-01-17T13:41:34.294Z,9.10
2023-01-17T13:44:21.141Z,9.10
2023-01-17T13:46:55.372Z,9.00
2023-01-17T13:49:34.010Z,9.00
2023-01-17T13:52:19.187Z,8.90
2023-01-17T13:54:54.431Z,8.80
2023-01-17T13:57:32.922Z,8.80
2023-01-17T14:00:24.292Z,8.70
2023-01-17T14:02:53.298Z,8.70
2023-01-17T14:05:41.892Z,8.60
2023-01-17T14:08:18.016Z,8.60
2023-01-17T14:10:48.655Z,8.50
2023-01-17T14:13:45.353Z,8.50
2023-01-17T14:16:21.793Z,8.40
2023-01-17T14:18:49.728Z,8.30
2023-01-17T14:21:23.508Z,8.30
2023-01-17T14:24:03.988Z,8.20
2023-01-17T14:26:48.290Z,8.20
2023-01-17T14:29:43.916Z,8.20
2023-01-17T14:32:23.128Z,8.20
2023-01-17T14:34:52.461Z,8.10
2023-01-17T14:37:41.154Z,8.10
2023-01-17T14:40:38.932Z,8.10
2023-01-17T14:43:11.997Z,8.00
2023-01-17T14:45:39.853Z,8.00
2023-01-17T14:48:16.261Z,8.00
2023-01-17T14:50:45.461Z,7.90
2023-01-17T14:53:15.666Z,7.90
2023-01-17T14:55:49.145Z,7.80
2023-01-17T14:58:24.371Z,7.70
2023-01-17T15:00:59.933Z,7.80
2023-01-17T15:03:30.443Z,7.70
2023-01-17T15:06:09.713Z,7.70
2023-01-17T15:08:37.387Z,7.70
2023-01-17T15:11:10.290Z,7.70
2023-01-17T15:13:51.738Z,7.70
2023-01-17T15:16:35.487Z,7.70
2023-01-17T15:19:09.808Z,7.60
2023-01-17T15:21:40.718Z,7.60
2023-01-17T15:24:13.424Z,7.60
2023-01-17T15:26:44.745Z,7.60
2023-01-17T15:29:40.565Z,7.50
2023-01-17T15:32:24.088Z,7.50
2023-01-17T15:34:52.485Z,7.50
2023-01-17T15:37:30.921Z,7.50
2023-01-17T15:40:25.856Z,7.50
2023-01-17T15:43:01.902Z,7.50
2023-01-17T15:45:31.415Z,7.50
2023-01-17T15:48:45.049Z,7.50
2023-01-17T15:51:30.940Z,7.50
2023-01-17T15:53:58.379Z,7.50
2023-01-17T15:56:33.713Z,7.50
2023-01-17T15:59:44.633Z,7.50
2023-01-17T16:02:30.863Z,7.40
2023-01-17T16:04:59.731Z,7.40
2023-01-17T16:07:36.349Z,7.50
2023-01-17T16:10:21.569Z,7.50
2023-01-17T16:12:53.739Z,7.50
2023-01-17T16:15:23.251Z,7.50
2023-01-17T16:18:11.904Z,7.40
2023-01-17T16:20:44.297Z,7.40
2023-01-17T16:23:11.785Z,7.40
2023-01-17T16:25:39.225Z,7.40
2023-01-17T16:28:06.722Z,7.30
2023-01-17T16:30:34.192Z,7.30
2023-01-17T16:33:03.287Z,7.30
2023-01-17T16:35:33.882Z,7.30
2023-01-17T16:38:04.531Z,7.20
2023-01-17T16:40:34.344Z,7.20
2023-01-17T16:43:01.890Z,7.20
2023-01-17T16:45:29.926Z,7.20
2023-01-17T16:47:57.020Z,7.10
2023-01-17T16:50:25.176Z,7.10
2023-01-17T16:52:53.872Z,7.10
2023-01-17T16:55:24.320Z,7.00
2023-01-17T16:57:54.231Z,7.00
2023-01-17T17:00:22.789Z,7.00
2023-01-17T17:02:51.404Z,6.90
2023-01-17T17:05:18.914Z,6.90
2023-01-17T17:07:50.765Z,6.80
2023-01-17T17:10:20.908Z,6.80
2023-01-17T17:12:48.188Z,6.80
2023-01-17T17:15:15.442Z,6.70
2023-01-17T17:17:43.686Z,6.70
2023-01-17T17:20:13.743Z,6.70
2023-01-17T17:22:45.278Z,6.60
2023-01-17T17:25:13.490Z,6.60
2023-01-17T17:27:41.352Z,6.60
2023-01-17T17:30:09.717Z,6.50
2023-01-17T17:32:36.879Z,6.40
2023-01-17T17:35:04.396Z,6.40
2023-01-17T17:37:31.599Z,6.40
2023-01-17T17:39:58.776Z,6.40
2023-01-17T17:42:26.398Z,6.40
2023-01-17T17:44:53.742Z,6.30
2023-01-17T17:47:20.918Z,6.30
2023-01-17T17:49:48.096Z,6.30
2023-01-17T17:52:15.589Z,6.30
2023-01-17T17:54:42.853Z,6.30
2023-01-17T17:57:10.102Z,6.30
2023-01-17T17:59:37.210Z,6.30
2023-01-17T18:02:06.701Z,6.40
2023-01-17T18:04:33.937Z,6.40
2023-01-17T18:07:01.195Z,6.40
2023-01-17T18:09:28.492Z,6.30
2023-01-17T18:11:55.736Z,6.30
2023-01-17T18:14:24.126Z,6.30
2023-01-17T18:16:51.755Z,6.20
2023-01-17T18:19:24.716Z,6.20
2023-01-17T18:21:52.282Z,6.20
2023-01-17T18:24:22.092Z,6.20
2023-01-17T18:26:51.952Z,6.20
2023-01-17T18:29:21.045Z,6.10
2023-01-17T18:31:54.994Z,6.10
2023-01-17T18:34:29.340Z,6.10
2023-01-17T18:36:57.209Z,6.10
2023-01-17T18:39:27.476Z,6.10
2023-01-17T18:41:54.844Z,6.10
2023-01-17T18:44:22.670Z,6.10
2023-01-17T18:46:54.190Z,6.10
2023-01-17T18:49:21.859Z,6.10
2023-01-17T18:51:51.277Z,6.10
2023-01-17T18:54:20.443Z,6.10
2023-01-17T18:56:48.274Z,6.10
2023-01-17T18:59:18.500Z,6.10
2023-01-17T19:01:46.285Z,6.10
2023-01-17T19:04:14.907Z,6.10
2023-01-17T19:06:44.236Z,6.10
2023-01-17T19:09:13.400Z,6.00
2023-01-17T19:11:40.662Z,6.00
2023-01-17T19:14:07.957Z,6.00
2023-01-17T19:16:39.525Z,6.00
2023-01-17T19:19:09.531Z,6.10
2023-01-17T19:21:36.798Z,6.10
2023-01-17T19:24:04.293Z,6.10
2023-01-17T19:26:31.539Z,6.00
2023-01-17T19:28:59.082Z,6.00
2023-01-17T19:31:28.964Z,6.00
2023-01-17T19:33:58.222Z,6.00
2023-01-17T19:36:28.365Z,6.00
2023-01-17T19:39:04.419Z,6.00
2023-01-17T19:41:35.593Z,6.00
2023-01-17T19:44:06.291Z,6.00
2023-01-17T19:46:34.815Z,5.90
2023-01-17T19:49:02.717Z,5.90
2023-01-17T19:51:30.092Z,5.90
2023-01-17T19:53:59.913Z,5.90
2023-01-17T19:56:28.638Z,5.90
2023-01-17T19:59:00.689Z,5.80
2023-01-17T20:01:30.620Z,5.80
2023-01-17T20:03:58.969Z,5.80
2023-01-17T20:06:31.142Z,5.70
2023-01-17T20:08:58.994Z,5.70
2023-01-17T20:11:27.495Z,5.70
2023-01-17T20:13:58.098Z,5.70
2023-01-17T20:16:27.277Z,5.70
2023-01-17T20:18:54.415Z,5.70
2023-01-17T20:21:24.164Z,5.70
2023-01-17T20:23:53.527Z,5.60
2023-01-17T20:26:23.653Z,5.60
2023-01-17T20:28:51.927Z,5.60
2023-01-17T20:31:22.884Z,5.60
2023-01-17T20:33:52.385Z,5.60
2023-01-17T20:36:21.736Z,5.60
2023-01-17T20:38:49.608Z,5.50
2023-01-17T20:41:30.647Z,5.50
2023-01-17T20:44:00.471Z,5.50
2023-01-17T20:46:31.425Z,5.50
2023-01-17T20:49:03.163Z,5.40
2023-01-17T20:51:30.749Z,5.40
2023-01-17T20:54:00.850Z,5.40
2023-01-17T20:56:30.226Z,5.40
2023-01-17T20:58:57.964Z,5.30
2023-01-17T21:01:25.250Z,5.30
2023-01-17T21:03:54.016Z,5.30
2023-01-17T21:06:24.284Z,5.30
2023-01-17T21:08:54.419Z,5.30
2023-01-17T21:11:24.446Z,5.30
2023-01-17T21:13:51.845Z,5.30
2023-01-17T21:16:22.796Z,5.30
2023-01-17T21:18:51.706Z,5.30
2023-01-17T21:21:24.154Z,5.30
2023-01-17T21:23:53.566Z,5.30
2023-01-17T21:26:22.531Z,5.30
2023-01-17T21:28:50.877Z,5.30
2023-01-17T21:31:27.225Z,5.30
2023-01-17T21:33:55.777Z,5.30
2023-01-17T21:36:25.748Z,5.30
2023-01-17T21:38:57.019Z,5.30
2023-01-17T21:41:27.526Z,5.20
2023-01-17T21:44:03.383Z,5.30
2023-01-17T21:46:30.785Z,5.30
2023-01-17T21:48:57.970Z,5.30
2023-01-17T21:51:45.411Z,5.30
2023-01-17T21:54:12.776Z,5.30
2023-01-17T21:56:58.659Z,5.30
2023-01-17T21:59:25.935Z,5.30
2023-01-17T22:01:53.150Z,5.30
2023-01-17T22:04:20.563Z,5.20
2023-01-17T22:06:48.071Z,5.20
2023-01-17T22:09:15.269Z,5.30
2023-01-17T22:11:42.578Z,5.30
2023-01-17T22:14:09.752Z,5.30
2023-01-17T22:16:36.999Z,5.30
2023-01-17T22:19:04.388Z,5.30
2023-01-17T22:21:31.511Z,5.20
2023-01-17T22:23:59.972Z,5.20
2023-01-17T22:26:31.616Z,5.20
2023-01-17T22:29:02.399Z,5.20
2023-01-17T22:31:29.646Z,5.20
2023-01-17T22:33:59.528Z,5.10
2023-01-17T22:36:27.339Z,5.10
2023-01-17T22:38:54.512Z,5.10
2023-01-17T22:41:24.017Z,5.00
2023-01-17T22:43:53.249Z,5.10
2023-01-17T22:46:24.931Z,5.00
2023-01-17T22:48:52.823Z,5.00
2023-01-17T22:51:21.467Z,5.00
2023-01-17T22:53:53.902Z,5.10
2023-01-17T22:56:23.955Z,5.10
2023-01-17T22:58:51.206Z,5.20
2023-01-17T23:01:22.461Z,5.20
2023-01-17T23:04:18.595Z,5.20
2023-01-17T23:06:45.805Z,5.20
2023-01-17T23:09:14.706Z,5.20
2023-01-17T23:11:48.740Z,5.20
2023-01-17T23:14:19.159Z,5.20
2023-01-17T23:17:12.746Z,5.20
2023-01-17T23:19:48.173Z,5.20
2023-01-17T23:22:37.316Z,5.20
2023-01-17T23:25:06.259Z,5.20
2023-01-17T23:27:58.971Z,5.20
2023-01-17T23:30:29.164Z,5.10
2023-01-17T23:32:58.867Z,5.10
2023-01-17T23:35:28.888Z,5.00
2023-01-17T23:38:15.012Z,5.00
2023-01-17T23:40:42.933Z,5.00
2023-01-17T23:43:23.115Z,5.00
2023-01-17T23:45:51.548Z,4.90
2023-01-17T23:48:19.407Z,4.90
2023-01-17T23:50:47.937Z,4.90
2023-01-17T23:53:23.709Z,4.80
2023-01-17T23:55:59.825Z,4.80
2023-01-17T23:58:31.104Z,4.80
